createdAt,value
2023-01-30T00:00:07.514Z,101764.63
2023-01-30T00:02:40.065Z,101767.13
2023-01-30T00:05:06.905Z,101761.72
2023-01-30T00:07:33.369Z,101747.00
2023-01-30T00:10:17.432Z,101759.44
2023-01-30T00:12:44.200Z,101766.25
2023-01-30T00:15:10.814Z,101766.25
2023-01-30T00:17:37.211Z,101757.16
2023-01-30T00:20:18.510Z,101755.06
2023-01-30T00:23:01.022Z,101743.88
2023-01-30T00:25:29.135Z,101733.72
2023-01-30T00:28:02.170Z,101727.31
2023-01-30T00:30:43.201Z,101721.50
2023-01-30T00:33:10.518Z,101720.47
2023-01-30T00:35:36.927Z,101709.47
2023-01-30T00:38:03.427Z,101706.56
2023-01-30T00:41:01.250Z,101695.38
2023-01-30T00:43:53.274Z,101677.13
2023-01-30T00:46:52.610Z,101691.22
2023-01-30T00:49:19.671Z,101699.88
2023-01-30T00:51:46.340Z,101690.75
2023-01-30T00:54:12.966Z,101690.31
2023-01-30T00:56:39.384Z,101695.25
2023-01-30T00:59:05.822Z,101686.16
2023-01-30T01:01:51.598Z,101686.75
2023-01-30T01:04:18.194Z,101693.78
2023-01-30T01:06:44.687Z,101689.84
2023-01-30T01:09:23.434Z,101672.84
2023-01-30T01:11:52.121Z,101660.84
2023-01-30T01:14:18.605Z,101652.56
2023-01-30T01:16:51.200Z,101647.78
2023-01-30T01:19:28.878Z,101644.03
2023-01-30T01:21:55.365Z,101645.09
2023-01-30T01:24:25.936Z,101643.84
2023-01-30T01:26:52.397Z,101636.56
2023-01-30T01:29:25.104Z,101632.84
2023-01-30T01:32:00.804Z,101628.06
2023-01-30T01:34:30.730Z,101626.41
2023-01-30T01:36:57.193Z,101628.50
2023-01-30T01:39:23.758Z,101618.31
2023-01-30T01:41:50.804Z,101617.28
2023-01-30T01:44:17.677Z,101607.56
2023-01-30T01:46:46.899Z,101615.63
2023-01-30T01:49:33.758Z,101618.94
2023-01-30T01:52:15.112Z,101623.72
2023-01-30T01:54:50.225Z,101622.66
2023-01-30T01:57:31.915Z,101617.28
2023-01-30T02:00:06.726Z,101609.19
2023-01-30T02:02:34.569Z,101607.56
2023-01-30T02:05:02.937Z,101611.91
2023-01-30T02:07:52.072Z,101603.81
2023-01-30T02:10:49.813Z,101605.47
2023-01-30T02:13:17.204Z,101601.13
2023-01-30T02:15:44.103Z,101603.00
2023-01-30T02:18:25.510Z,101605.47
2023-01-30T02:21:27.472Z,101598.22
2023-01-30T02:24:34.701Z,101595.28
2023-01-30T02:27:10.832Z,101607.72
2023-01-30T02:29:53.798Z,101601.88
2023-01-30T02:32:25.554Z,101602.72
2023-01-30T02:35:06.625Z,101609.53
2023-01-30T02:38:09.495Z,101602.28
2023-01-30T02:40:54.125Z,101597.72
2023-01-30T02:43:37.952Z,101596.06
2023-01-30T02:46:32.281Z,101586.34
2023-01-30T02:49:11.518Z,101590.06
2023-01-30T02:51:40.607Z,101578.25
2023-01-30T02:54:20.265Z,101586.94
2023-01-30T02:56:53.681Z,101585.88
2023-01-30T02:59:31.827Z,101578.66
2023-01-30T03:02:30.551Z,101580.50
2023-01-30T03:05:45.107Z,101572.44
2023-01-30T03:08:11.418Z,101581.09
2023-01-30T03:10:55.808Z,101576.75
2023-01-30T03:13:28.300Z,101569.53
2023-01-30T03:16:12.016Z,101569.53
2023-01-30T03:18:42.264Z,101561.66
2023-01-30T03:21:12.555Z,101557.91
2023-01-30T03:23:39.027Z,101552.53
2023-01-30T03:26:18.173Z,101555.00
2023-01-30T03:28:54.010Z,101558.75
2023-01-30T03:31:20.587Z,101548.78
2023-01-30T03:33:47.225Z,101555.81
2023-01-30T03:36:14.040Z,101549.63
2023-01-30T03:38:40.547Z,101551.03
2023-01-30T03:41:06.934Z,101547.53
2023-01-30T03:43:46.422Z,101557.03
2023-01-30T03:46:14.919Z,101555.38
2023-01-30T03:48:41.541Z,101553.28
2023-01-30T03:51:21.097Z,101544.16
2023-01-30T03:53:47.702Z,101544.75
2023-01-30T03:56:14.225Z,101544.53
2023-01-30T03:58:43.845Z,101545.34
2023-01-30T04:01:20.826Z,101545.34
2023-01-30T04:03:47.421Z,101539.53
2023-01-30T04:06:15.858Z,101541.16
2023-01-30T04:08:42.347Z,101552.75
2023-01-30T04:11:08.756Z,101544.47
2023-01-30T04:13:35.130Z,101547.75
2023-01-30T04:16:22.376Z,101549.41
2023-01-30T04:18:49.198Z,101552.69
2023-01-30T04:21:20.436Z,101552.69
2023-01-30T04:23:46.832Z,101561.38
2023-01-30T04:26:16.211Z,101564.06
2023-01-30T04:28:44.597Z,101563.03
2023-01-30T04:31:13.274Z,101555.53
2023-01-30T04:33:43.912Z,101552.84
2023-01-30T04:36:17.635Z,101557.19
2023-01-30T04:38:44.189Z,101558.25
2023-01-30T04:41:10.687Z,101564.44
2023-01-30T04:43:37.165Z,101555.53
2023-01-30T04:46:03.808Z,101543.72
2023-01-30T04:48:35.364Z,101562.56
2023-01-30T04:51:11.225Z,101554.50
2023-01-30T04:53:37.717Z,101558.00
2023-01-30T04:56:04.746Z,101555.31
2023-01-30T04:58:31.158Z,101562.56
2023-01-30T05:01:31.588Z,101547.22
2023-01-30T05:03:57.976Z,101559.66
2023-01-30T05:06:24.428Z,101564.22
2023-01-30T05:08:52.553Z,101571.25
2023-01-30T05:11:20.011Z,101565.88
2023-01-30T05:13:47.014Z,101569.63
2023-01-30T05:16:14.832Z,101560.47
2023-01-30T05:18:42.217Z,101564.22
2023-01-30T05:21:30.384Z,101570.44
2023-01-30T05:23:57.589Z,101564.22
2023-01-30T05:26:35.028Z,101560.94
2023-01-30T05:29:02.604Z,101556.59
2023-01-30T05:31:35.272Z,101579.19
2023-01-30T05:34:01.745Z,101580.25
2023-01-30T05:36:44.599Z,101585.63
2023-01-30T05:39:10.996Z,101586.69
2023-01-30T05:41:41.337Z,101587.94
2023-01-30T05:44:11.648Z,101585.69
2023-01-30T05:46:38.856Z,101597.16
2023-01-30T05:49:05.478Z,101603.56
2023-01-30T05:51:48.509Z,101583.06
2023-01-30T05:54:16.463Z,101598.63
2023-01-30T05:57:06.607Z,101598.25
2023-01-30T05:59:37.161Z,101579.63
2023-01-30T06:02:04.591Z,101583.59
2023-01-30T06:04:30.985Z,101575.72
2023-01-30T06:06:57.553Z,101587.53
2023-01-30T06:09:23.925Z,101595.63
2023-01-30T06:11:52.465Z,101598.16
2023-01-30T06:14:48.519Z,101610.84
2023-01-30T06:17:14.906Z,101610.69
2023-01-30T06:19:51.524Z,101609.47
2023-01-30T06:22:18.099Z,101613.63
2023-01-30T06:24:51.550Z,101615.09
2023-01-30T06:27:19.375Z,101611.59
2023-01-30T06:29:47.851Z,101614.50
2023-01-30T06:32:14.983Z,101606.25
2023-01-30T06:34:42.488Z,101599.69
2023-01-30T06:37:10.027Z,101612.53
2023-01-30T06:39:41.608Z,101608.41
2023-01-30T06:42:08.183Z,101624.16
2023-01-30T06:44:35.869Z,101614.88
2023-01-30T06:47:09.490Z,101616.78
2023-01-30T06:49:35.892Z,101611.41
2023-01-30T06:52:02.345Z,101617.00
2023-01-30T06:55:03.850Z,101620.97
2023-01-30T06:57:31.389Z,101626.34
2023-01-30T07:00:07.114Z,101624.69
2023-01-30T07:02:47.719Z,101632.97
2023-01-30T07:05:14.353Z,101630.50
2023-01-30T07:07:41.861Z,101633.19
2023-01-30T07:10:09.561Z,101637.53
2023-01-30T07:12:38.348Z,101653.06
2023-01-30T07:15:06.603Z,101660.09
2023-01-30T07:17:33.143Z,101670.88
2023-01-30T07:20:02.783Z,101655.16
2023-01-30T07:22:29.231Z,101673.97
2023-01-30T07:25:02.778Z,101688.47
2023-01-30T07:27:29.288Z,101673.38
2023-01-30T07:30:15.538Z,101672.53
2023-01-30T07:32:41.941Z,101674.19
2023-01-30T07:35:26.782Z,101681.03
2023-01-30T07:37:53.344Z,101676.69
2023-01-30T07:40:21.708Z,101684.56
2023-01-30T07:43:02.122Z,101689.72
2023-01-30T07:45:41.814Z,101694.28
2023-01-30T07:48:10.433Z,101678.94
2023-01-30T07:50:36.884Z,101679.78
2023-01-30T07:53:13.558Z,101677.91
2023-01-30T07:55:43.099Z,101685.56
2023-01-30T07:58:22.766Z,101686.41
2023-01-30T08:00:49.249Z,101685.56
2023-01-30T08:03:16.934Z,101684.31
2023-01-30T08:05:46.661Z,101691.34
2023-01-30T08:08:13.051Z,101693.00
2023-01-30T08:10:39.405Z,101684.09
2023-01-30T08:13:05.816Z,101683.03
2023-01-30T08:15:33.495Z,101685.53
2023-01-30T08:17:59.980Z,101695.88
2023-01-30T08:20:28.031Z,101701.63
2023-01-30T08:22:55.888Z,101702.03
2023-01-30T08:25:22.380Z,101702.44
2023-01-30T08:27:48.841Z,101709.63
2023-01-30T08:30:15.339Z,101713.13
2023-01-30T08:32:41.701Z,101722.78
2023-01-30T08:35:09.024Z,101728.34
2023-01-30T08:37:35.388Z,101726.91
2023-01-30T08:40:01.931Z,101727.53
2023-01-30T08:42:28.434Z,101729.78
2023-01-30T08:44:54.859Z,101733.09
2023-01-30T08:47:21.216Z,101724.41
2023-01-30T08:49:47.575Z,101726.03
2023-01-30T08:52:13.950Z,101720.91
2023-01-30T08:54:40.355Z,101712.59
2023-01-30T08:57:06.747Z,101719.63
2023-01-30T08:59:33.113Z,101732.28
2023-01-30T09:01:59.576Z,101733.69
2023-01-30T09:04:26.506Z,101747.75
2023-01-30T09:06:52.995Z,101743.00
2023-01-30T09:09:19.394Z,101744.63
2023-01-30T09:11:48.016Z,101748.97
2023-01-30T09:14:19.746Z,101745.25
2023-01-30T09:16:55.881Z,101761.81
2023-01-30T09:19:27.034Z,101774.44
2023-01-30T09:21:54.805Z,101773.41
2023-01-30T09:24:26.788Z,101768.84
2023-01-30T09:26:58.862Z,101774.63
2023-01-30T09:29:28.945Z,101784.59
2023-01-30T09:31:56.631Z,101780.00
2023-01-30T09:34:29.650Z,101776.88
2023-01-30T09:37:04.832Z,101790.16
2023-01-30T09:39:31.796Z,101785.38
2023-01-30T09:42:16.703Z,101795.69
2023-01-30T09:44:52.009Z,101794.44
2023-01-30T09:47:22.662Z,101787.78
2023-01-30T09:50:07.708Z,101791.91
2023-01-30T09:52:57.665Z,101802.25
2023-01-30T09:55:28.014Z,101803.06
2023-01-30T09:57:56.400Z,101794.16
2023-01-30T10:00:37.904Z,101809.31
2023-01-30T10:03:12.727Z,101796.88
2023-01-30T10:05:47.384Z,101796.88
2023-01-30T10:08:21.684Z,101805.16
2023-01-30T10:11:09.006Z,101796.88
2023-01-30T10:14:02.416Z,101812.00
2023-01-30T10:16:39.142Z,101829.22
2023-01-30T10:19:33.611Z,101842.25
2023-01-30T10:22:24.768Z,101845.31
2023-01-30T10:25:27.787Z,101842.19
2023-01-30T10:28:10.140Z,101842.59
2023-01-30T10:30:36.828Z,101852.34
2023-01-30T10:33:08.248Z,101829.13
2023-01-30T10:35:39.202Z,101837.81
2023-01-30T10:38:30.181Z,101836.78
2023-01-30T10:41:20.873Z,101831.59
2023-01-30T10:43:57.634Z,101838.84
2023-01-30T10:46:35.092Z,101847.97
2023-01-30T10:49:19.775Z,101857.50
2023-01-30T10:52:13.290Z,101845.91
2023-01-30T10:54:59.979Z,101839.47
2023-01-30T10:57:38.539Z,101842.16
2023-01-30T11:00:10.619Z,101840.69
2023-01-30T11:02:53.244Z,101842.16
2023-01-30T11:05:25.651Z,101846.50
2023-01-30T11:07:52.132Z,101841.28
2023-01-30T11:10:25.689Z,101849.69
2023-01-30T11:13:00.558Z,101843.63
2023-01-30T11:15:55.892Z,101850.97
2023-01-30T11:19:11.319Z,101836.41
2023-01-30T11:21:42.349Z,101833.38
2023-01-30T11:24:17.167Z,101839.41
2023-01-30T11:26:47.726Z,101842.81
2023-01-30T11:29:33.142Z,101837.00
2023-01-30T11:32:04.977Z,101831.25
2023-01-30T11:34:31.777Z,101816.78
2023-01-30T11:37:33.861Z,101834.84
2023-01-30T11:40:21.027Z,101842.88
2023-01-30T11:42:50.532Z,101835.31
2023-01-30T11:45:18.850Z,101834.88
2023-01-30T11:47:57.790Z,101832.31
2023-01-30T11:50:49.633Z,101840.16
2023-01-30T11:53:39.295Z,101838.16
2023-01-30T11:56:14.114Z,101831.41
2023-01-30T11:58:41.888Z,101840.94
2023-01-30T12:01:11.213Z,101839.56
2023-01-30T12:03:48.354Z,101844.91
2023-01-30T12:06:30.535Z,101857.66
2023-01-30T12:08:57.392Z,101845.81
2023-01-30T12:11:30.457Z,101858.72
2023-01-30T12:14:14.850Z,101861.28
2023-01-30T12:16:53.771Z,101867.13
2023-01-30T12:19:39.998Z,101873.72
2023-01-30T12:22:44.855Z,101867.72
2023-01-30T12:25:22.280Z,101855.94
2023-01-30T12:28:25.435Z,101874.00
2023-01-30T12:30:58.072Z,101869.06
2023-01-30T12:33:31.023Z,101868.47
2023-01-30T12:36:10.961Z,101877.81
2023-01-30T12:38:44.509Z,101865.00
2023-01-30T12:41:47.495Z,101880.59
2023-01-30T12:44:31.675Z,101868.16
2023-01-30T12:47:04.048Z,101877.47
2023-01-30T12:50:02.995Z,101875.81
2023-01-30T12:52:54.581Z,101888.84
2023-01-30T12:55:23.964Z,101885.09
2023-01-30T12:58:03.014Z,101873.91
2023-01-30T13:00:45.964Z,101897.25
2023-01-30T13:03:21.325Z,101903.09
2023-01-30T13:05:57.644Z,101905.53
2023-01-30T13:08:38.852Z,101913.28
2023-01-30T13:11:16.073Z,101906.22
2023-01-30T13:13:56.676Z,101918.06
2023-01-30T13:16:38.599Z,101922.88
2023-01-30T13:19:21.083Z,101915.22
2023-01-30T13:22:05.771Z,101914.16
2023-01-30T13:24:43.308Z,101916.88
2023-01-30T13:27:17.034Z,101924.34
2023-01-30T13:29:44.900Z,101943.25
2023-01-30T13:32:29.418Z,101932.69
2023-01-30T13:34:59.274Z,101947.22
2023-01-30T13:37:25.842Z,101945.34
2023-01-30T13:40:17.965Z,101950.53
2023-01-30T13:42:56.625Z,101963.19
2023-01-30T13:45:28.078Z,101968.59
2023-01-30T13:48:20.867Z,101970.22
2023-01-30T13:51:26.238Z,101968.38
2023-01-30T13:54:03.194Z,101985.59
2023-01-30T13:56:53.210Z,101984.84
2023-01-30T13:59:57.034Z,101982.31
2023-01-30T14:02:24.736Z,101980.66
2023-01-30T14:04:56.167Z,101982.75
2023-01-30T14:07:28.396Z,101989.19
2023-01-30T14:10:10.152Z,101997.72
2023-01-30T14:12:47.741Z,102004.97
2023-01-30T14:15:14.519Z,102010.81
2023-01-30T14:18:07.031Z,102015.63
2023-01-30T14:20:40.797Z,102022.47
2023-01-30T14:23:31.053Z,102029.34
2023-01-30T14:25:58.225Z,102030.59
2023-01-30T14:28:25.131Z,102037.88
2023-01-30T14:30:59.787Z,102037.88
2023-01-30T14:33:26.157Z,102045.97
2023-01-30T14:35:58.630Z,102055.94
2023-01-30T14:38:26.886Z,102060.50
2023-01-30T14:40:59.529Z,102063.44
2023-01-30T14:43:25.875Z,102075.50
2023-01-30T14:46:03.251Z,102066.59
2023-01-30T14:48:32.181Z,102077.56
2023-01-30T14:51:12.028Z,102080.28
2023-01-30T14:53:52.252Z,102078.41
2023-01-30T14:56:23.038Z,102089.66
2023-01-30T14:59:03.625Z,102088.00
2023-01-30T15:02:00.523Z,102100.44
2023-01-30T15:04:33.195Z,102097.94
2023-01-30T15:07:05.436Z,102108.75
2023-01-30T15:09:32.584Z,102106.03
2023-01-30T15:12:20.560Z,102114.13
2023-01-30T15:15:31.912Z,102123.28
2023-01-30T15:18:07.830Z,102133.25
2023-01-30T15:21:00.153Z,102125.38
2023-01-30T15:23:41.692Z,102132.41
2023-01-30T15:26:24.964Z,102140.75
2023-01-30T15:29:09.811Z,102139.09
2023-01-30T15:31:36.206Z,102140.75
2023-01-30T15:34:02.661Z,102143.63
2023-01-30T15:36:32.554Z,102142.81
2023-01-30T15:39:05.577Z,102159.22
2023-01-30T15:41:40.429Z,102159.84
2023-01-30T15:44:14.383Z,102172.72
2023-01-30T15:47:02.132Z,102175.84
2023-01-30T15:49:37.781Z,102178.53
2023-01-30T15:52:06.970Z,102183.13
2023-01-30T15:54:33.394Z,102184.34
2023-01-30T15:57:00.617Z,102182.69
2023-01-30T15:59:36.072Z,102192.69
2023-01-30T16:02:16.728Z,102192.88
2023-01-30T16:04:43.157Z,102193.91
2023-01-30T16:07:22.457Z,102198.06
2023-01-30T16:10:06.800Z,102208.06
2023-01-30T16:12:34.195Z,102209.09
2023-01-30T16:15:17.065Z,102224.44
2023-01-30T16:17:55.422Z,102225.91
2023-01-30T16:20:22.025Z,102241.28
2023-01-30T16:22:48.638Z,102244.81
2023-01-30T16:25:22.512Z,102249.81
2023-01-30T16:27:51.609Z,102256.88
2023-01-30T16:30:29.423Z,102262.25
2023-01-30T16:32:56.777Z,102262.06
2023-01-30T16:35:26.886Z,102271.41
2023-01-30T16:37:55.970Z,102277.41
2023-01-30T16:40:33.098Z,102281.13
2023-01-30T16:43:15.453Z,102288.19
2023-01-30T16:45:54.312Z,102298.53
2023-01-30T16:48:34.648Z,102297.09
2023-01-30T16:51:01.277Z,102300.22
2023-01-30T16:53:37.154Z,102306.00
2023-01-30T16:56:09.717Z,102304.34
2023-01-30T16:58:38.438Z,102318.22
2023-01-30T17:01:08.853Z,102306.41
2023-01-30T17:03:37.009Z,102309.53
2023-01-30T17:06:33.183Z,102318.63
2023-01-30T17:08:59.832Z,102325.47
2023-01-30T17:11:40.393Z,102335.44
2023-01-30T17:14:27.073Z,102339.34
2023-01-30T17:17:02.045Z,102339.56
2023-01-30T17:19:28.460Z,102342.44
2023-01-30T17:21:57.089Z,102346.19
2023-01-30T17:24:25.402Z,102352.19
2023-01-30T17:26:59.393Z,102364.19
2023-01-30T17:29:41.843Z,102356.72
2023-01-30T17:32:14.996Z,102373.47
2023-01-30T17:34:41.713Z,102372.22
2023-01-30T17:37:20.211Z,102378.44
2023-01-30T17:39:47.332Z,102383.56
2023-01-30T17:42:14.786Z,102384.78
2023-01-30T17:44:41.594Z,102387.47
2023-01-30T17:47:11.117Z,102380.44
2023-01-30T17:49:37.670Z,102391.19
2023-01-30T17:52:04.290Z,102387.88
2023-01-30T17:54:30.676Z,102389.13
2023-01-30T17:57:02.273Z,102394.91
2023-01-30T17:59:28.725Z,102403.16
2023-01-30T18:01:55.157Z,102402.53
2023-01-30T18:04:21.551Z,102417.66
2023-01-30T18:06:55.904Z,102420.56
2023-01-30T18:09:24.186Z,102414.75
2023-01-30T18:11:51.260Z,102412.25
2023-01-30T18:14:18.000Z,102423.88
2023-01-30T18:16:44.931Z,102419.69
2023-01-30T18:19:13.819Z,102417.22
2023-01-30T18:21:40.329Z,102418.41
2023-01-30T18:24:07.536Z,102428.78
2023-01-30T18:26:34.152Z,102436.22
2023-01-30T18:29:00.685Z,102435.13
2023-01-30T18:31:31.387Z,102437.00
2023-01-30T18:33:58.118Z,102435.13
2023-01-30T18:36:24.779Z,102444.81
2023-01-30T18:38:51.758Z,102452.00
2023-01-30T18:41:20.524Z,102451.13
2023-01-30T18:43:48.563Z,102455.88
2023-01-30T18:46:17.517Z,102452.53
2023-01-30T18:48:46.086Z,102452.06
2023-01-30T18:51:15.715Z,102444.00
2023-01-30T18:53:43.131Z,102447.94
2023-01-30T18:56:36.475Z,102453.69
2023-01-30T18:59:05.154Z,102454.56
2023-01-30T19:01:35.633Z,102461.59
2023-01-30T19:04:04.066Z,102465.75
2023-01-30T19:06:30.530Z,102454.34
2023-01-30T19:08:58.023Z,102462.63
2023-01-30T19:11:43.490Z,102460.31
2023-01-30T19:14:10.436Z,102462.38
2023-01-30T19:16:38.491Z,102464.41
2023-01-30T19:19:06.479Z,102465.63
2023-01-30T19:21:33.747Z,102466.84
2023-01-30T19:24:06.495Z,102475.94
2023-01-30T19:26:33.330Z,102482.34
2023-01-30T19:28:59.753Z,102479.56
2023-01-30T19:31:26.287Z,102479.97
2023-01-30T19:33:55.197Z,102475.34
2023-01-30T19:36:23.325Z,102475.72
2023-01-30T19:38:49.883Z,102478.63
2023-01-30T19:41:31.430Z,102471.97
2023-01-30T19:44:01.210Z,102471.31
2023-01-30T19:46:29.019Z,102471.88
2023-01-30T19:48:56.093Z,102474.94
2023-01-30T19:51:28.026Z,102486.09
2023-01-30T19:54:05.081Z,102482.94
2023-01-30T19:56:32.637Z,102492.03
2023-01-30T19:59:00.415Z,102488.25
2023-01-30T20:01:29.766Z,102485.28
2023-01-30T20:03:57.116Z,102496.88
2023-01-30T20:06:26.604Z,102496.41
2023-01-30T20:08:55.765Z,102493.91
2023-01-30T20:11:22.171Z,102497.44
2023-01-30T20:13:49.449Z,102491.44
2023-01-30T20:16:21.268Z,102500.31
2023-01-30T20:18:59.849Z,102500.13
2023-01-30T20:21:27.092Z,102504.47
2023-01-30T20:23:53.951Z,102512.16
2023-01-30T20:26:23.308Z,102511.31
2023-01-30T20:28:50.504Z,102507.63
2023-01-30T20:31:19.564Z,102511.31
2023-01-30T20:33:46.932Z,102510.13
2023-01-30T20:36:16.481Z,102506.97
2023-01-30T20:38:43.752Z,102507.16
2023-01-30T20:41:14.797Z,102506.53
2023-01-30T20:43:46.679Z,102501.31
2023-01-30T20:46:18.386Z,102495.13
2023-01-30T20:48:45.579Z,102502.16
2023-01-30T20:51:17.470Z,102512.91
2023-01-30T20:53:49.900Z,102519.97
2023-01-30T20:56:16.343Z,102523.66
2023-01-30T20:58:42.815Z,102522.00
2023-01-30T21:01:10.613Z,102523.03
2023-01-30T21:03:38.278Z,102517.16
2023-01-30T21:06:05.300Z,102519.41
2023-01-30T21:08:31.710Z,102518.56
2023-01-30T21:11:10.876Z,102527.84
2023-01-30T21:13:38.337Z,102531.34
2023-01-30T21:16:10.455Z,102527.19
2023-01-30T21:18:39.333Z,102524.69
2023-01-30T21:21:15.800Z,102534.13
2023-01-30T21:23:43.314Z,102534.88
2023-01-30T21:26:11.330Z,102532.75
2023-01-30T21:28:37.986Z,102540.53
2023-01-30T21:31:17.271Z,102542.09
2023-01-30T21:33:43.903Z,102539.97
2023-01-30T21:36:11.759Z,102532.63
2023-01-30T21:38:57.751Z,102518.28
2023-01-30T21:41:45.799Z,102525.03
2023-01-30T21:44:13.181Z,102526.41
2023-01-30T21:46:45.285Z,102528.63
2023-01-30T21:49:12.562Z,102530.84
2023-01-30T21:51:43.646Z,102542.78
2023-01-30T21:54:10.069Z,102545.63
2023-01-30T21:56:36.873Z,102548.50
2023-01-30T21:59:05.475Z,102553.50
2023-01-30T22:01:33.101Z,102557.66
2023-01-30T22:04:00.748Z,102555.66
2023-01-30T22:06:27.616Z,102557.78
2023-01-30T22:08:55.504Z,102564.09
2023-01-30T22:11:21.968Z,102559.84
2023-01-30T22:13:48.701Z,102562.66
2023-01-30T22:16:17.698Z,102557.56
2023-01-30T22:18:56.353Z,102553.31
2023-01-30T22:21:25.216Z,102551.75
2023-01-30T22:23:53.183Z,102546.19
2023-01-30T22:26:21.285Z,102547.84
2023-01-30T22:28:48.105Z,102548.03
2023-01-30T22:31:19.698Z,102560.81
2023-01-30T22:33:47.528Z,102549.59
2023-01-30T22:36:15.014Z,102545.81
2023-01-30T22:38:50.587Z,102542.19
2023-01-30T22:41:20.977Z,102544.38
2023-01-30T22:43:55.336Z,102538.09
2023-01-30T22:46:25.930Z,102539.47
2023-01-30T22:48:53.257Z,102541.84
2023-01-30T22:51:26.087Z,102535.19
2023-01-30T22:53:58.774Z,102530.19
2023-01-30T22:56:41.029Z,102530.53
2023-01-30T22:59:13.519Z,102520.38
2023-01-30T23:01:42.554Z,102529.78
2023-01-30T23:04:19.862Z,102523.13
2023-01-30T23:06:52.206Z,102517.09
2023-01-30T23:09:31.669Z,102516.81
2023-01-30T23:12:16.698Z,102511.16
2023-01-30T23:14:43.515Z,102514.03
2023-01-30T23:17:32.742Z,102513.53
2023-01-30T23:19:59.173Z,102504.84
2023-01-30T23:22:30.701Z,102501.69
2023-01-30T23:24:57.137Z,102497.34
2023-01-30T23:27:24.387Z,102499.53
2023-01-30T23:29:54.979Z,102504.09
2023-01-30T23:32:23.492Z,102498.06
2023-01-30T23:34:49.906Z,102507.13
2023-01-30T23:37:16.567Z,102495.25
2023-01-30T23:39:43.119Z,102498.47
2023-01-30T23:42:20.851Z,102497.16
2023-01-30T23:44:47.234Z,102497.53
2023-01-30T23:47:16.614Z,102495.69
2023-01-30T23:49:43.014Z,102500.41
2023-01-30T23:52:10.301Z,102490.69
2023-01-30T23:54:36.724Z,102494.53
2023-01-30T23:57:03.125Z,102501.94
2023-01-30T23:59:34.965Z,102519.22
